createdAt,value
2022-09-12T00:01:19.841Z,99615.56
2022-09-12T00:03:47.922Z,99620.34
2022-09-12T00:06:22.809Z,99618.91
2022-09-12T00:09:03.820Z,99618.31
2022-09-12T00:11:31.157Z,99613.97
2022-09-12T00:14:00.443Z,99613.03
2022-09-12T00:16:29.945Z,99603.19
2022-09-12T00:18:57.689Z,99608.00
2022-09-12T00:21:25.360Z,99606.69
2022-09-12T00:23:52.850Z,99613.97
2022-09-12T00:26:22.117Z,99615.38
2022-09-12T00:28:50.548Z,99619.13
2022-09-12T00:31:21.548Z,99626.78
2022-09-12T00:33:48.914Z,99623.62
2022-09-12T00:36:21.232Z,99627.37
2022-09-12T00:38:49.813Z,99613.81
2022-09-12T00:41:20.661Z,99613.94
2022-09-12T00:43:50.841Z,99613.50
2022-09-12T00:46:36.742Z,99615.44
2022-09-12T00:49:12.984Z,99618.47
2022-09-12T00:51:45.059Z,99614.47
2022-09-12T00:54:15.301Z,99624.28
2022-09-12T00:56:44.136Z,99615.22
2022-09-12T00:59:18.967Z,99623.59
2022-09-12T01:01:48.982Z,99622.53
2022-09-12T01:04:18.526Z,99628.53
2022-09-12T01:06:46.523Z,99625.50
2022-09-12T01:09:18.420Z,99625.56
2022-09-12T01:11:47.038Z,99624.41
2022-09-12T01:14:16.110Z,99622.00
2022-09-12T01:16:45.208Z,99622.53
2022-09-12T01:19:31.947Z,99609.97
2022-09-12T01:22:28.737Z,99619.03
2022-09-12T01:25:24.406Z,99618.31
2022-09-12T01:28:22.722Z,99624.00
2022-09-12T01:31:11.173Z,99622.91
2022-09-12T01:33:47.685Z,99624.16
2022-09-12T01:36:41.351Z,99625.81
2022-09-12T01:39:16.494Z,99620.53
2022-09-12T01:41:53.924Z,99621.53
2022-09-12T01:45:03.400Z,99624.97
2022-09-12T01:47:38.818Z,99622.53
2022-09-12T01:50:10.764Z,99623.84
2022-09-12T01:52:44.184Z,99623.25
2022-09-12T01:55:17.807Z,99614.38
2022-09-12T01:57:50.336Z,99623.53
2022-09-12T02:00:18.096Z,99627.47
2022-09-12T02:02:51.946Z,99622.78
2022-09-12T02:05:39.299Z,99630.09
2022-09-12T02:08:09.551Z,99636.03
2022-09-12T02:10:44.163Z,99632.03
2022-09-12T02:13:38.677Z,99631.69
2022-09-12T02:16:10.703Z,99635.34
2022-09-12T02:18:41.505Z,99639.53
2022-09-12T02:21:08.981Z,99638.25
2022-09-12T02:23:39.522Z,99636.59
2022-09-12T02:26:13.349Z,99640.00
2022-09-12T02:28:42.518Z,99636.56
2022-09-12T02:31:20.967Z,99621.03
2022-09-12T02:34:02.001Z,99620.66
2022-09-12T02:36:40.883Z,99623.72
2022-09-12T02:39:08.457Z,99631.53
2022-09-12T02:41:36.171Z,99626.31
2022-09-12T02:44:04.171Z,99628.41
2022-09-12T02:47:05.207Z,99630.59
2022-09-12T02:49:32.978Z,99636.09
2022-09-12T02:52:01.473Z,99631.97
2022-09-12T02:54:29.591Z,99626.16
2022-09-12T02:56:57.154Z,99637.78
2022-09-12T02:59:25.386Z,99629.91
2022-09-12T03:02:11.080Z,99637.25
2022-09-12T03:05:08.323Z,99643.50
2022-09-12T03:07:48.272Z,99640.56
2022-09-12T03:10:23.041Z,99639.06
2022-09-12T03:13:09.289Z,99635.44
2022-09-12T03:15:55.538Z,99630.31
2022-09-12T03:18:34.457Z,99630.91
2022-09-12T03:21:15.115Z,99630.16
2022-09-12T03:24:04.542Z,99633.47
2022-09-12T03:26:54.895Z,99620.41
2022-09-12T03:29:23.113Z,99627.81
2022-09-12T03:31:53.044Z,99630.16
2022-09-12T03:34:21.484Z,99632.53
2022-09-12T03:36:49.783Z,99637.00
2022-09-12T03:39:18.052Z,99630.41
2022-09-12T03:41:45.438Z,99642.69
2022-09-12T03:44:12.783Z,99639.91
2022-09-12T03:46:40.362Z,99644.53
2022-09-12T03:49:07.671Z,99638.47
2022-09-12T03:51:35.181Z,99631.44
2022-09-12T03:54:03.056Z,99629.25
2022-09-12T03:56:30.474Z,99624.78
2022-09-12T03:58:57.915Z,99630.31
2022-09-12T04:01:25.526Z,99634.28
2022-09-12T04:03:53.148Z,99634.72
2022-09-12T04:06:22.413Z,99641.69
2022-09-12T04:08:53.958Z,99642.34
2022-09-12T04:11:22.256Z,99641.94
2022-09-12T04:13:49.894Z,99639.16
2022-09-12T04:16:18.671Z,99637.13
2022-09-12T04:18:46.892Z,99647.09
2022-09-12T04:21:19.287Z,99643.81
2022-09-12T04:23:46.871Z,99648.44
2022-09-12T04:26:14.736Z,99643.22
2022-09-12T04:28:42.245Z,99645.66
2022-09-12T04:31:15.539Z,99641.56
2022-09-12T04:33:42.930Z,99642.44
2022-09-12T04:36:14.620Z,99646.69
2022-09-12T04:38:43.458Z,99642.66
2022-09-12T04:41:16.491Z,99640.47
2022-09-12T04:43:46.549Z,99652.34
2022-09-12T04:46:16.927Z,99642.09
2022-09-12T04:48:44.290Z,99641.72
2022-09-12T04:51:23.111Z,99647.38
2022-09-12T04:53:53.077Z,99648.09
2022-09-12T04:56:21.051Z,99650.31
2022-09-12T04:58:48.831Z,99655.75
2022-09-12T05:01:18.639Z,99658.81
2022-09-12T05:03:47.140Z,99654.75
2022-09-12T05:06:17.495Z,99669.91
2022-09-12T05:08:45.506Z,99672.87
2022-09-12T05:11:22.785Z,99669.56
2022-09-12T05:13:53.049Z,99673.59
2022-09-12T05:16:21.081Z,99679.84
2022-09-12T05:18:50.208Z,99669.72
2022-09-12T05:21:21.169Z,99676.88
2022-09-12T05:23:51.435Z,99686.25
2022-09-12T05:26:20.565Z,99689.44
2022-09-12T05:28:48.663Z,99694.91
2022-09-12T05:31:28.005Z,99695.34
2022-09-12T05:33:56.075Z,99701.25
2022-09-12T05:36:29.233Z,99710.19
2022-09-12T05:38:57.503Z,99690.69
2022-09-12T05:41:27.463Z,99708.53
2022-09-12T05:43:59.450Z,99702.06
2022-09-12T05:46:28.965Z,99699.00
2022-09-12T05:48:57.258Z,99703.81
2022-09-12T05:51:26.732Z,99710.13
2022-09-12T05:53:59.003Z,99713.63
2022-09-12T05:56:28.504Z,99709.59
2022-09-12T05:59:03.782Z,99708.44
2022-09-12T06:01:35.592Z,99712.19
2022-09-12T06:04:05.049Z,99711.06
2022-09-12T06:06:36.543Z,99713.31
2022-09-12T06:09:05.217Z,99710.94
2022-09-12T06:11:34.264Z,99708.56
2022-09-12T06:14:01.977Z,99709.94
2022-09-12T06:16:31.404Z,99712.13
2022-09-12T06:19:01.643Z,99709.69
2022-09-12T06:21:31.257Z,99718.44
2022-09-12T06:23:59.876Z,99715.81
2022-09-12T06:26:29.244Z,99718.25
2022-09-12T06:28:58.339Z,99722.38
2022-09-12T06:31:29.215Z,99715.72
2022-09-12T06:33:59.249Z,99710.69
2022-09-12T06:36:29.497Z,99718.63
2022-09-12T06:38:59.429Z,99720.75
2022-09-12T06:41:27.461Z,99713.13
2022-09-12T06:43:54.867Z,99717.59
2022-09-12T06:46:22.260Z,99719.91
2022-09-12T06:48:50.587Z,99713.88
2022-09-12T06:51:20.082Z,99719.03
2022-09-12T06:53:48.746Z,99712.09
2022-09-12T06:56:19.238Z,99716.66
2022-09-12T06:58:47.776Z,99713.81
2022-09-12T07:01:17.138Z,99707.56
2022-09-12T07:03:51.581Z,99704.72
2022-09-12T07:06:20.564Z,99707.56
2022-09-12T07:08:48.499Z,99706.50
2022-09-12T07:11:16.957Z,99707.50
2022-09-12T07:13:47.569Z,99712.37
2022-09-12T07:16:19.752Z,99709.00
2022-09-12T07:18:52.099Z,99717.53
2022-09-12T07:21:20.206Z,99717.78
2022-09-12T07:23:48.057Z,99728.38
2022-09-12T07:26:16.734Z,99717.66
2022-09-12T07:28:44.756Z,99732.66
2022-09-12T07:31:16.971Z,99727.66
2022-09-12T07:33:44.779Z,99719.91
2022-09-12T07:36:14.458Z,99729.91
2022-09-12T07:38:42.352Z,99730.53
2022-09-12T07:41:20.899Z,99732.91
2022-09-12T07:43:48.369Z,99737.38
2022-09-12T07:46:16.717Z,99738.81
2022-09-12T07:48:45.473Z,99737.81
2022-09-12T07:51:13.054Z,99733.81
2022-09-12T07:53:41.611Z,99735.88
2022-09-12T07:56:13.312Z,99735.19
2022-09-12T07:58:42.118Z,99737.31
2022-09-12T08:01:15.186Z,99733.03
2022-09-12T08:03:44.170Z,99735.72
2022-09-12T08:06:17.260Z,99724.59
2022-09-12T08:08:44.853Z,99729.09
2022-09-12T08:11:14.163Z,99730.84
2022-09-12T08:13:42.758Z,99732.34
2022-09-12T08:16:18.744Z,99725.41
2022-09-12T08:18:46.066Z,99724.34
2022-09-12T08:21:16.272Z,99733.00
2022-09-12T08:23:44.459Z,99731.69
2022-09-12T08:26:12.439Z,99727.03
2022-09-12T08:28:43.362Z,99733.00
2022-09-12T08:31:12.462Z,99732.53
2022-09-12T08:33:40.327Z,99734.59
2022-09-12T08:36:08.077Z,99739.63
2022-09-12T08:38:36.062Z,99733.66
2022-09-12T08:41:11.766Z,99742.31
2022-09-12T08:43:51.030Z,99736.56
2022-09-12T08:46:43.018Z,99735.28
2022-09-12T08:49:13.523Z,99726.47
2022-09-12T08:51:41.833Z,99725.53
2022-09-12T08:54:22.333Z,99727.37
2022-09-12T08:56:49.990Z,99720.13
2022-09-12T08:59:17.451Z,99723.78
2022-09-12T09:01:45.605Z,99714.91
2022-09-12T09:04:18.955Z,99717.56
2022-09-12T09:06:52.074Z,99722.91
2022-09-12T09:09:42.949Z,99721.00
2022-09-12T09:12:34.824Z,99714.72
2022-09-12T09:15:41.190Z,99694.91
2022-09-12T09:18:16.960Z,99717.06
2022-09-12T09:20:56.568Z,99717.72
2022-09-12T09:23:27.435Z,99715.59
2022-09-12T09:26:01.759Z,99709.09
2022-09-12T09:28:52.132Z,99701.50
2022-09-12T09:31:22.428Z,99696.63
2022-09-12T09:33:52.117Z,99710.38
2022-09-12T09:36:45.428Z,99715.47
2022-09-12T09:39:28.610Z,99708.78
2022-09-12T09:42:17.529Z,99704.69
2022-09-12T09:44:48.256Z,99711.03
2022-09-12T09:47:17.942Z,99711.22
2022-09-12T09:49:45.757Z,99713.72
2022-09-12T09:52:15.575Z,99712.22
2022-09-12T09:54:58.048Z,99719.16
2022-09-12T09:57:34.229Z,99721.00
2022-09-12T10:00:27.568Z,99717.41
2022-09-12T10:03:24.442Z,99715.12
2022-09-12T10:05:59.009Z,99710.56
2022-09-12T10:08:27.635Z,99703.91
2022-09-12T10:11:22.826Z,99697.00
2022-09-12T10:13:50.298Z,99704.34
2022-09-12T10:16:52.699Z,99701.31
2022-09-12T10:19:24.629Z,99704.06
2022-09-12T10:21:53.402Z,99711.87
2022-09-12T10:24:23.978Z,99711.56
2022-09-12T10:26:56.926Z,99707.97
2022-09-12T10:29:31.663Z,99706.66
2022-09-12T10:32:02.148Z,99706.66
2022-09-12T10:34:33.464Z,99699.03
2022-09-12T10:37:06.693Z,99700.69
2022-09-12T10:39:36.154Z,99707.97
2022-09-12T10:42:04.752Z,99707.66
2022-09-12T10:44:34.372Z,99711.41
2022-09-12T10:47:21.797Z,99707.00
2022-09-12T10:49:51.164Z,99713.66
2022-09-12T10:52:25.396Z,99707.19
2022-09-12T10:54:53.034Z,99701.16
2022-09-12T10:57:21.150Z,99697.72
2022-09-12T11:00:15.552Z,99700.97
2022-09-12T11:02:49.459Z,99694.16
2022-09-12T11:05:29.102Z,99702.16
2022-09-12T11:08:14.304Z,99687.19
2022-09-12T11:11:03.054Z,99702.63
2022-09-12T11:13:56.918Z,99703.59
2022-09-12T11:16:43.099Z,99692.22
2022-09-12T11:19:27.428Z,99699.53
2022-09-12T11:22:13.068Z,99703.75
2022-09-12T11:25:08.671Z,99697.91
2022-09-12T11:28:04.442Z,99703.19
2022-09-12T11:30:40.181Z,99707.66
2022-09-12T11:33:28.812Z,99702.28
2022-09-12T11:35:57.862Z,99705.72
2022-09-12T11:38:47.964Z,99703.44
2022-09-12T11:41:21.060Z,99698.53
2022-09-12T11:43:51.755Z,99696.59
2022-09-12T11:46:36.819Z,99693.25
2022-09-12T11:49:27.430Z,99696.03
2022-09-12T11:52:20.107Z,99697.91
2022-09-12T11:55:03.862Z,99694.31
2022-09-12T11:57:41.737Z,99692.16
2022-09-12T12:00:44.970Z,99694.59
2022-09-12T12:03:23.663Z,99704.47
2022-09-12T12:06:21.335Z,99688.25
2022-09-12T12:08:50.466Z,99692.97
2022-09-12T12:11:35.942Z,99683.63
2022-09-12T12:14:03.907Z,99681.19
2022-09-12T12:16:37.214Z,99670.12
2022-09-12T12:19:10.881Z,99680.69
2022-09-12T12:21:42.648Z,99675.00
2022-09-12T12:24:10.117Z,99677.44
2022-09-12T12:26:40.422Z,99668.16
2022-09-12T12:29:43.883Z,99670.12
2022-09-12T12:32:12.276Z,99667.53
2022-09-12T12:34:46.924Z,99668.66
2022-09-12T12:37:20.972Z,99672.16
2022-09-12T12:39:48.442Z,99675.16
2022-09-12T12:42:57.007Z,99677.72
2022-09-12T12:45:26.955Z,99669.75
2022-09-12T12:48:15.362Z,99677.84
2022-09-12T12:50:44.392Z,99672.00
2022-09-12T12:53:27.672Z,99675.09
2022-09-12T12:55:56.450Z,99671.38
2022-09-12T12:58:34.609Z,99664.44
2022-09-12T13:01:11.296Z,99658.72
2022-09-12T13:03:42.923Z,99653.34
2022-09-12T13:06:25.269Z,99655.84
2022-09-12T13:09:00.172Z,99649.81
2022-09-12T13:11:30.781Z,99642.34
2022-09-12T13:14:01.409Z,99648.19
2022-09-12T13:16:53.320Z,99658.63
2022-09-12T13:19:32.465Z,99654.84
2022-09-12T13:22:01.487Z,99648.81
2022-09-12T13:24:29.131Z,99641.31
2022-09-12T13:26:57.835Z,99650.31
2022-09-12T13:29:27.448Z,99639.06
2022-09-12T13:31:59.994Z,99627.16
2022-09-12T13:34:30.015Z,99630.06
2022-09-12T13:37:06.296Z,99622.56
2022-09-12T13:39:52.361Z,99618.84
2022-09-12T13:42:39.231Z,99626.31
2022-09-12T13:45:13.682Z,99626.72
2022-09-12T13:47:46.022Z,99627.22
2022-09-12T13:50:20.489Z,99617.00
2022-09-12T13:52:54.131Z,99614.59
2022-09-12T13:55:41.592Z,99618.75
2022-09-12T13:58:22.891Z,99622.00
2022-09-12T14:01:08.036Z,99623.97
2022-09-12T14:03:59.556Z,99625.78
2022-09-12T14:06:27.745Z,99629.28
2022-09-12T14:09:00.845Z,99633.25
2022-09-12T14:11:31.156Z,99627.56
2022-09-12T14:14:07.027Z,99619.19
2022-09-12T14:16:39.102Z,99625.84
2022-09-12T14:19:06.725Z,99623.59
2022-09-12T14:21:36.492Z,99626.47
2022-09-12T14:24:05.693Z,99622.06
2022-09-12T14:26:37.626Z,99618.75
2022-09-12T14:29:06.118Z,99625.63
2022-09-12T14:31:38.487Z,99627.37
2022-09-12T14:34:19.518Z,99615.81
2022-09-12T14:36:52.293Z,99620.69
2022-09-12T14:39:38.025Z,99630.13
2022-09-12T14:42:16.808Z,99624.66
2022-09-12T14:44:56.339Z,99620.25
2022-09-12T14:47:27.907Z,99624.25
2022-09-12T14:49:55.286Z,99630.84
2022-09-12T14:52:30.508Z,99630.81
2022-09-12T14:55:00.688Z,99615.84
2022-09-12T14:57:27.910Z,99620.13
2022-09-12T15:00:14.688Z,99615.66
2022-09-12T15:02:43.415Z,99611.97
2022-09-12T15:05:13.528Z,99610.06
2022-09-12T15:07:53.666Z,99617.34
2022-09-12T15:10:31.343Z,99615.06
2022-09-12T15:13:11.943Z,99609.44
2022-09-12T15:15:41.394Z,99605.66
2022-09-12T15:18:16.156Z,99607.16
2022-09-12T15:20:51.031Z,99617.72
2022-09-12T15:23:30.328Z,99611.72
2022-09-12T15:25:57.926Z,99607.91
2022-09-12T15:28:26.861Z,99608.66
2022-09-12T15:31:01.922Z,99594.06
2022-09-12T15:33:29.670Z,99596.66
2022-09-12T15:36:06.279Z,99597.37
2022-09-12T15:38:33.854Z,99602.84
2022-09-12T15:41:01.285Z,99604.97
2022-09-12T15:43:28.634Z,99611.22
2022-09-12T15:45:56.394Z,99613.13
2022-09-12T15:48:23.974Z,99604.00
2022-09-12T15:50:53.074Z,99603.09
2022-09-12T15:53:20.715Z,99603.88
2022-09-12T15:56:02.161Z,99607.28
2022-09-12T15:58:33.642Z,99612.44
2022-09-12T16:01:07.450Z,99603.56
2022-09-12T16:03:36.003Z,99606.63
2022-09-12T16:06:07.301Z,99604.84
2022-09-12T16:08:36.289Z,99604.19
2022-09-12T16:11:19.121Z,99602.88
2022-09-12T16:13:46.730Z,99603.06
2022-09-12T16:16:14.119Z,99602.63
2022-09-12T16:18:41.703Z,99602.19
2022-09-12T16:21:14.894Z,99603.53
2022-09-12T16:23:44.015Z,99607.75
2022-09-12T16:26:11.660Z,99611.53
2022-09-12T16:28:39.243Z,99608.56
2022-09-12T16:31:07.875Z,99614.94
2022-09-12T16:33:36.884Z,99614.69
2022-09-12T16:36:14.990Z,99617.16
2022-09-12T16:38:51.165Z,99612.66
2022-09-12T16:41:21.170Z,99609.44
2022-09-12T16:43:48.840Z,99606.19
2022-09-12T16:46:18.917Z,99602.34
2022-09-12T16:48:52.715Z,99605.28
2022-09-12T16:51:47.431Z,99601.97
2022-09-12T16:54:15.735Z,99600.03
2022-09-12T16:56:44.064Z,99601.16
2022-09-12T16:59:14.183Z,99592.31
2022-09-12T17:01:42.038Z,99598.81
2022-09-12T17:04:10.135Z,99598.34
2022-09-12T17:06:37.564Z,99595.28
2022-09-12T17:09:05.413Z,99602.41
2022-09-12T17:11:36.464Z,99599.16
2022-09-12T17:14:06.948Z,99604.53
2022-09-12T17:16:36.748Z,99608.41
2022-09-12T17:19:05.184Z,99606.44
2022-09-12T17:21:33.086Z,99602.41
2022-09-12T17:24:00.767Z,99603.09
2022-09-12T17:26:28.106Z,99605.81
2022-09-12T17:28:55.451Z,99603.69
2022-09-12T17:31:23.122Z,99607.06
2022-09-12T17:33:50.476Z,99609.34
2022-09-12T17:36:18.226Z,99612.31
2022-09-12T17:38:46.554Z,99619.37
2022-09-12T17:41:17.984Z,99621.19
2022-09-12T17:43:50.943Z,99625.25
2022-09-12T17:46:19.574Z,99627.84
2022-09-12T17:48:55.147Z,99623.94
2022-09-12T17:51:25.075Z,99624.78
2022-09-12T17:54:01.244Z,99638.16
2022-09-12T17:56:30.961Z,99643.56
2022-09-12T17:58:59.515Z,99645.88
2022-09-12T18:01:46.314Z,99641.88
2022-09-12T18:04:14.903Z,99637.78
2022-09-12T18:06:48.190Z,99642.81
2022-09-12T18:09:18.994Z,99644.72
2022-09-12T18:11:48.533Z,99643.94
2022-09-12T18:14:17.254Z,99650.44
2022-09-12T18:16:45.971Z,99653.22
2022-09-12T18:19:13.721Z,99659.66
2022-09-12T18:21:41.641Z,99659.56
2022-09-12T18:24:10.523Z,99664.59
2022-09-12T18:26:38.306Z,99665.16
2022-09-12T18:29:06.864Z,99665.16
2022-09-12T18:31:34.546Z,99672.81
2022-09-12T18:34:02.639Z,99664.00
2022-09-12T18:36:31.061Z,99670.19
2022-09-12T18:38:59.587Z,99670.88
2022-09-12T18:41:29.217Z,99677.03
2022-09-12T18:43:59.436Z,99673.06
2022-09-12T18:46:28.777Z,99669.56
2022-09-12T18:48:58.752Z,99670.03
2022-09-12T18:51:31.832Z,99674.34
2022-09-12T18:54:03.166Z,99669.25
2022-09-12T18:56:36.178Z,99668.38
2022-09-12T18:59:05.803Z,99665.50
2022-09-12T19:01:38.966Z,99665.00
2022-09-12T19:04:08.221Z,99674.16
2022-09-12T19:06:41.683Z,99658.97
2022-09-12T19:09:10.813Z,99663.03
2022-09-12T19:11:40.261Z,99666.91
2022-09-12T19:14:07.728Z,99667.81
2022-09-12T19:16:36.009Z,99667.28
2022-09-12T19:19:04.131Z,99667.88
2022-09-12T19:21:33.492Z,99664.66
2022-09-12T19:24:06.945Z,99667.13
2022-09-12T19:26:35.029Z,99672.00
2022-09-12T19:29:03.240Z,99667.19
2022-09-12T19:31:32.720Z,99674.72
2022-09-12T19:34:02.215Z,99681.25
2022-09-12T19:36:46.982Z,99682.53
2022-09-12T19:39:17.611Z,99670.66
2022-09-12T19:41:45.845Z,99677.81
2022-09-12T19:44:13.583Z,99675.25
2022-09-12T19:46:42.562Z,99676.22
2022-09-12T19:49:11.770Z,99672.00
2022-09-12T19:51:39.127Z,99675.94
2022-09-12T19:54:07.909Z,99667.84
2022-09-12T19:56:35.346Z,99678.22
2022-09-12T19:59:02.878Z,99677.06
2022-09-12T20:01:30.593Z,99674.88
2022-09-12T20:03:59.163Z,99670.00
2022-09-12T20:06:27.474Z,99673.00
2022-09-12T20:08:55.645Z,99669.19
2022-09-12T20:11:24.401Z,99673.31
2022-09-12T20:13:52.286Z,99676.28
2022-09-12T20:16:22.792Z,99660.59
2022-09-12T20:18:55.882Z,99677.84
2022-09-12T20:21:25.477Z,99671.38
2022-09-12T20:23:53.271Z,99670.94
2022-09-12T20:26:20.751Z,99671.09
2022-09-12T20:28:48.585Z,99676.28
2022-09-12T20:31:16.828Z,99678.94
2022-09-12T20:33:47.541Z,99681.78
2022-09-12T20:36:19.360Z,99681.91
2022-09-12T20:38:49.416Z,99675.88
2022-09-12T20:41:18.404Z,99684.12
2022-09-12T20:43:49.046Z,99683.25
2022-09-12T20:46:20.947Z,99692.59
2022-09-12T20:48:50.142Z,99693.94
2022-09-12T20:51:18.922Z,99690.13
2022-09-12T20:53:46.777Z,99684.81
2022-09-12T20:56:15.021Z,99681.28
2022-09-12T20:58:44.256Z,99684.09
2022-09-12T21:01:13.692Z,99686.06
2022-09-12T21:03:42.120Z,99690.41
2022-09-12T21:06:10.831Z,99689.13
2022-09-12T21:08:38.713Z,99692.59
2022-09-12T21:11:06.677Z,99685.91
2022-09-12T21:13:34.736Z,99692.66
2022-09-12T21:16:07.211Z,99684.19
2022-09-12T21:18:35.456Z,99691.19
2022-09-12T21:21:04.339Z,99695.75
2022-09-12T21:23:32.072Z,99684.56
2022-09-12T21:25:59.923Z,99695.87
2022-09-12T21:28:27.773Z,99700.81
2022-09-12T21:30:55.936Z,99696.53
2022-09-12T21:33:23.630Z,99699.25
2022-09-12T21:35:51.255Z,99698.41
2022-09-12T21:38:19.681Z,99705.88
2022-09-12T21:40:47.816Z,99716.25
2022-09-12T21:43:15.353Z,99710.75
2022-09-12T21:45:42.691Z,99706.63
2022-09-12T21:48:10.554Z,99707.78
2022-09-12T21:50:37.912Z,99701.47
2022-09-12T21:53:05.226Z,99715.78
2022-09-12T21:55:33.058Z,99709.81
2022-09-12T21:58:00.392Z,99710.44
2022-09-12T22:00:27.822Z,99712.50
2022-09-12T22:02:55.746Z,99714.44
2022-09-12T22:05:24.597Z,99715.19
2022-09-12T22:07:52.536Z,99714.34
2022-09-12T22:10:20.109Z,99713.31
2022-09-12T22:12:47.422Z,99708.06
2022-09-12T22:15:39.525Z,99706.88
2022-09-12T22:18:02.442Z,99713.00
2022-09-12T22:20:29.743Z,99711.84
2022-09-12T22:23:15.616Z,99717.66
2022-09-12T22:25:43.228Z,99705.34
2022-09-12T22:28:10.750Z,99707.31
2022-09-12T22:30:38.655Z,99717.63
2022-09-12T22:33:06.293Z,99720.00
2022-09-12T22:35:33.649Z,99716.66
2022-09-12T22:38:00.995Z,99720.84
2022-09-12T22:40:28.556Z,99729.88
2022-09-12T22:42:55.869Z,99724.56
2022-09-12T22:45:23.175Z,99731.69
2022-09-12T22:47:50.754Z,99719.97
2022-09-12T22:50:18.098Z,99713.84
2022-09-12T22:52:45.405Z,99712.88
2022-09-12T22:55:13.138Z,99723.22
2022-09-12T22:57:40.553Z,99720.84
2022-09-12T23:00:10.572Z,99723.62
2022-09-12T23:02:38.219Z,99716.38
2022-09-12T23:05:06.175Z,99718.28
2022-09-12T23:07:33.575Z,99714.19
2022-09-12T23:10:01.187Z,99714.22
2022-09-12T23:12:28.533Z,99714.97
2022-09-12T23:14:55.864Z,99718.44
2022-09-12T23:17:23.494Z,99720.16
2022-09-12T23:19:50.803Z,99713.91
2022-09-12T23:22:18.262Z,99727.34
2022-09-12T23:24:45.922Z,99728.97
2022-09-12T23:27:13.325Z,99716.12
2022-09-12T23:29:40.632Z,99715.88
2022-09-12T23:32:08.247Z,99718.28
2022-09-12T23:34:35.665Z,99722.69
2022-09-12T23:37:03.267Z,99712.31
2022-09-12T23:39:31.809Z,99714.50
2022-09-12T23:41:59.250Z,99710.94
2022-09-12T23:44:26.560Z,99711.19
2022-09-12T23:46:54.152Z,99717.78
2022-09-12T23:49:22.246Z,99722.41
2022-09-12T23:51:49.563Z,99720.22
2022-09-12T23:54:17.139Z,99719.69
2022-09-12T23:56:44.528Z,99721.31
2022-09-12T23:59:11.843Z,99713.41
